Center, Kentucky
Current Conditions -  °F | °C
As of 10:15 PM on Wednesday 17 Dec 2014 (Local Time) from KGLW Reporting Station
Clear Clear  
Wind Chill: 26°   Ceiling: Unl
Heat Index: 26°   Visibility: 10mi
Dew Point: 23°   Wind: 0mph
Humidity: 89%   Direction: NA
Pressure: 30.26"   Gusts: NA
Location:  37.14°N, 85.69°W
Report Text: KGLW 180415Z AUTO 00000KT 10SM CLR M03/M05 A3026 RMK AO2 T10341050
Loading
Personal Weather Stations






























Interactive Weather Map New forecast layout! Learn more

10-Day Weather Forecast

Advertisements
Track Severe Weather on mobile